createdAt,value
2023-05-11T00:00:59.371Z,26.31
2023-05-11T00:01:59.507Z,26.31
2023-05-11T00:02:59.592Z,26.31
2023-05-11T00:03:59.568Z,26.31
2023-05-11T00:04:59.507Z,26.31
2023-05-11T00:05:59.488Z,26.30
2023-05-11T00:06:59.519Z,26.31
2023-05-11T00:07:59.566Z,26.31
2023-05-11T00:08:59.570Z,26.30
2023-05-11T00:09:59.586Z,26.30
2023-05-11T00:10:59.634Z,26.30
2023-05-11T00:11:59.655Z,26.29
2023-05-11T00:12:59.703Z,26.30
2023-05-11T00:13:59.720Z,26.29
2023-05-11T00:14:59.732Z,26.29
2023-05-11T00:15:59.765Z,26.29
2023-05-11T00:16:59.805Z,26.29
2023-05-11T00:17:59.941Z,26.28
2023-05-11T00:18:59.906Z,26.29
2023-05-11T00:19:59.883Z,26.29
2023-05-11T00:20:59.881Z,26.29
2023-05-11T00:21:59.909Z,26.29
2023-05-11T00:22:59.962Z,26.29
2023-05-11T00:24:00.015Z,26.29
2023-05-11T00:25:00.033Z,26.29
2023-05-11T00:26:00.040Z,26.28
2023-05-11T00:27:00.078Z,26.29
2023-05-11T00:28:00.127Z,26.28
2023-05-11T00:29:00.178Z,26.29
2023-05-11T00:30:00.280Z,26.29
2023-05-11T00:31:00.324Z,26.27
2023-05-11T00:32:00.251Z,26.28
2023-05-11T00:33:00.295Z,26.28
2023-05-11T00:34:00.302Z,26.29
2023-05-11T00:35:00.370Z,26.28
2023-05-11T00:36:00.362Z,26.28
2023-05-11T00:37:00.416Z,26.29
2023-05-11T00:38:00.446Z,26.28
2023-05-11T00:39:00.557Z,26.28
2023-05-11T00:40:00.570Z,26.27
2023-05-11T00:41:00.623Z,26.27
2023-05-11T00:42:00.671Z,26.28
2023-05-11T00:43:00.684Z,26.28
2023-05-11T00:44:00.747Z,26.27
2023-05-11T00:45:00.778Z,26.28
2023-05-11T00:46:00.850Z,26.28
2023-05-11T00:47:01.068Z,26.27
2023-05-11T00:48:00.961Z,26.26
2023-05-11T00:49:00.944Z,26.26
2023-05-11T00:50:00.996Z,26.27
2023-05-11T00:51:01.007Z,26.27
2023-05-11T00:52:01.089Z,26.26
2023-05-11T00:53:01.101Z,26.27
2023-05-11T00:54:01.153Z,26.27
2023-05-11T00:55:01.216Z,26.26
2023-05-11T00:56:01.235Z,26.26
2023-05-11T00:57:01.251Z,26.27
2023-05-11T00:58:01.295Z,26.26
2023-05-11T00:59:01.337Z,26.27
2023-05-11T01:00:01.379Z,26.26
2023-05-11T01:01:01.421Z,26.26
2023-05-11T01:02:01.512Z,26.26
2023-05-11T01:03:01.605Z,26.26
2023-05-11T01:04:01.543Z,26.25
2023-05-11T01:05:01.600Z,26.26
2023-05-11T01:06:01.614Z,26.25
2023-05-11T01:07:01.637Z,26.25
2023-05-11T01:08:01.682Z,26.26
2023-05-11T01:09:01.736Z,26.25
2023-05-11T01:10:01.753Z,26.25
2023-05-11T01:11:01.846Z,26.25
2023-05-11T01:12:01.852Z,26.25
2023-05-11T01:13:01.956Z,26.25
2023-05-11T01:14:01.939Z,26.25
2023-05-11T01:15:01.984Z,26.25
2023-05-11T01:16:02.014Z,26.25
2023-05-11T01:17:02.168Z,26.25
2023-05-11T01:18:02.137Z,26.25
2023-05-11T01:19:02.125Z,26.25
2023-05-11T01:20:02.118Z,26.24
2023-05-11T01:21:02.129Z,26.24
2023-05-11T01:22:02.145Z,26.24
2023-05-11T01:23:02.187Z,26.24
2023-05-11T01:24:02.222Z,26.24
2023-05-11T01:25:02.227Z,26.24
2023-05-11T01:26:02.264Z,26.24
2023-05-11T01:27:02.342Z,26.24
2023-05-11T01:28:02.334Z,26.24
2023-05-11T01:29:02.370Z,26.23
2023-05-11T01:30:02.395Z,26.24
2023-05-11T01:31:02.444Z,26.23
2023-05-11T01:32:02.479Z,26.23
2023-05-11T01:33:03.509Z,26.23
2023-05-11T01:34:02.530Z,26.23
2023-05-11T01:35:02.565Z,26.22
2023-05-11T01:36:02.563Z,26.24
2023-05-11T01:37:02.595Z,26.23
2023-05-11T01:38:02.637Z,26.23
2023-05-11T01:39:02.652Z,26.23
2023-05-11T01:40:02.726Z,26.22
2023-05-11T01:41:02.737Z,26.22
2023-05-11T01:42:02.776Z,26.23
2023-05-11T01:43:02.794Z,26.22
2023-05-11T01:44:02.812Z,26.23
2023-05-11T01:45:02.844Z,26.22
2023-05-11T01:46:02.891Z,26.22
2023-05-11T01:47:02.900Z,26.22
2023-05-11T01:48:03.047Z,26.21
2023-05-11T01:49:02.990Z,26.22
2023-05-11T01:50:03.084Z,26.22
2023-05-11T01:51:03.103Z,26.22
2023-05-11T01:52:03.115Z,26.22
2023-05-11T01:53:03.131Z,26.22
2023-05-11T01:54:03.193Z,26.21
2023-05-11T01:55:03.205Z,26.22
2023-05-11T01:56:03.241Z,26.22
2023-05-11T01:57:03.282Z,26.21
2023-05-11T01:58:03.323Z,26.21
2023-05-11T01:59:03.436Z,26.22
2023-05-11T02:00:03.485Z,26.22
2023-05-11T02:01:03.537Z,26.21
2023-05-11T02:02:03.527Z,26.21
2023-05-11T02:03:03.619Z,26.22
2023-05-11T02:04:03.578Z,26.22
2023-05-11T02:05:03.582Z,26.21
2023-05-11T02:06:03.627Z,26.22
2023-05-11T02:07:03.652Z,26.22
2023-05-11T02:08:03.705Z,26.21
2023-05-11T02:09:03.708Z,26.21
2023-05-11T02:10:03.721Z,26.21
2023-05-11T02:11:03.781Z,26.21
2023-05-11T02:12:03.811Z,26.21
2023-05-11T02:13:03.894Z,26.21
2023-05-11T02:14:03.863Z,26.21
2023-05-11T02:15:03.896Z,26.20
2023-05-11T02:16:03.922Z,26.21
2023-05-11T02:17:03.953Z,26.21
2023-05-11T02:18:04.066Z,26.20
2023-05-11T02:19:04.164Z,26.21
2023-05-11T02:20:04.052Z,26.21
2023-05-11T02:21:04.091Z,26.20
2023-05-11T02:22:04.075Z,26.21
2023-05-11T02:23:04.071Z,26.20
2023-05-11T02:24:04.142Z,26.20
2023-05-11T02:25:04.189Z,26.20
2023-05-11T02:26:04.186Z,26.20
2023-05-11T02:27:04.231Z,26.20
2023-05-11T02:28:04.258Z,26.20
2023-05-11T02:29:04.294Z,26.20
2023-05-11T02:30:04.300Z,26.20
2023-05-11T02:31:04.343Z,26.20
2023-05-11T02:32:04.360Z,26.20
2023-05-11T02:33:04.368Z,26.20
2023-05-11T02:34:04.320Z,26.19
2023-05-11T02:35:04.384Z,26.20
2023-05-11T02:36:04.380Z,26.19
2023-05-11T02:37:04.380Z,26.19
2023-05-11T02:38:04.419Z,26.20
2023-05-11T02:39:04.410Z,26.19
2023-05-11T02:40:04.423Z,26.19
2023-05-11T02:41:04.427Z,26.19
2023-05-11T02:42:04.443Z,26.19
2023-05-11T02:43:04.440Z,26.19
2023-05-11T02:44:04.480Z,26.19
2023-05-11T02:45:05.009Z,26.19
2023-05-11T02:46:04.517Z,26.19
2023-05-11T02:47:04.573Z,26.19
2023-05-11T02:48:04.576Z,26.18
2023-05-11T02:49:04.558Z,26.18
2023-05-11T02:50:04.608Z,26.18
2023-05-11T02:51:04.620Z,26.18
2023-05-11T02:52:04.736Z,26.18
2023-05-11T02:53:04.601Z,26.18
2023-05-11T02:54:04.611Z,26.18
2023-05-11T02:55:04.628Z,26.18
2023-05-11T02:56:04.648Z,26.18
2023-05-11T02:57:04.688Z,26.18
2023-05-11T02:58:04.784Z,26.18
2023-05-11T02:59:04.791Z,26.18
2023-05-11T03:00:04.820Z,26.18
2023-05-11T03:01:04.915Z,26.18
2023-05-11T03:02:04.979Z,26.18
2023-05-11T03:03:04.969Z,26.18
2023-05-11T03:04:04.960Z,26.18
2023-05-11T03:05:04.971Z,26.18
2023-05-11T03:06:04.978Z,26.17
2023-05-11T03:07:05.037Z,26.18
2023-05-11T03:08:05.060Z,26.17
2023-05-11T03:09:05.041Z,26.17
2023-05-11T03:10:05.082Z,26.17
2023-05-11T03:11:05.088Z,26.17
2023-05-11T03:12:05.141Z,26.16
2023-05-11T03:13:05.149Z,26.17
2023-05-11T03:14:05.223Z,26.17
2023-05-11T03:15:05.222Z,26.17
2023-05-11T03:16:05.264Z,26.17
2023-05-11T03:17:05.361Z,26.17
2023-05-11T03:18:05.355Z,26.16
2023-05-11T03:19:05.413Z,26.16
2023-05-11T03:20:05.504Z,26.17
2023-05-11T03:21:05.413Z,26.16
2023-05-11T03:22:05.445Z,26.15
2023-05-11T03:23:05.477Z,26.16
2023-05-11T03:24:05.497Z,26.16
2023-05-11T03:25:05.523Z,26.15
2023-05-11T03:26:05.582Z,26.16
2023-05-11T03:27:05.636Z,26.16
2023-05-11T03:28:05.660Z,26.16
2023-05-11T03:29:05.687Z,26.16
2023-05-11T03:30:05.725Z,26.15
2023-05-11T03:31:05.746Z,26.15
2023-05-11T03:32:05.849Z,26.15
2023-05-11T03:33:05.828Z,26.16
2023-05-11T03:34:05.790Z,26.15
2023-05-11T03:35:05.805Z,26.15
2023-05-11T03:36:05.785Z,26.15
2023-05-11T03:37:05.810Z,26.15
2023-05-11T03:38:05.804Z,26.15
2023-05-11T03:39:05.782Z,26.16
2023-05-11T03:40:05.805Z,26.16
2023-05-11T03:41:05.807Z,26.15
2023-05-11T03:42:05.818Z,26.15
2023-05-11T03:43:05.804Z,26.14
2023-05-11T03:44:05.807Z,26.15
2023-05-11T03:45:05.792Z,26.15
2023-05-11T03:46:05.836Z,26.15
2023-05-11T03:47:05.784Z,26.15
2023-05-11T03:48:05.925Z,26.14
2023-05-11T03:49:05.880Z,26.14
2023-05-11T03:50:05.934Z,26.14
2023-05-11T03:51:05.965Z,26.14
2023-05-11T03:52:05.991Z,26.15
2023-05-11T03:53:06.022Z,26.14
2023-05-11T03:54:06.056Z,26.14
2023-05-11T03:55:06.152Z,26.14
2023-05-11T03:56:06.121Z,26.13
2023-05-11T03:57:06.178Z,26.13
2023-05-11T03:58:06.197Z,26.14
2023-05-11T03:59:06.276Z,26.13
2023-05-11T04:00:06.271Z,26.13
2023-05-11T04:01:06.332Z,26.13
2023-05-11T04:02:06.426Z,26.13
2023-05-11T04:03:06.496Z,26.13
2023-05-11T04:04:06.559Z,26.13
2023-05-11T04:05:06.462Z,26.13
2023-05-11T04:06:06.475Z,26.13
2023-05-11T04:07:06.524Z,26.13
2023-05-11T04:08:06.548Z,26.13
2023-05-11T04:09:06.593Z,26.13
2023-05-11T04:10:06.605Z,26.12
2023-05-11T04:11:06.635Z,26.13
2023-05-11T04:12:06.701Z,26.13
2023-05-11T04:13:06.637Z,26.13
2023-05-11T04:14:06.649Z,26.13
2023-05-11T04:15:06.660Z,26.13
2023-05-11T04:16:06.679Z,26.12
2023-05-11T04:17:06.657Z,26.12
2023-05-11T04:18:06.675Z,26.12
2023-05-11T04:19:06.774Z,26.12
2023-05-11T04:20:06.663Z,26.12
2023-05-11T04:21:06.664Z,26.11
2023-05-11T04:22:06.639Z,26.11
2023-05-11T04:23:07.763Z,26.12
2023-05-11T04:24:06.620Z,26.12
2023-05-11T04:25:06.652Z,26.11
2023-05-11T04:26:06.643Z,26.11
2023-05-11T04:27:06.621Z,26.11
2023-05-11T04:28:06.614Z,26.11
2023-05-11T04:29:06.647Z,26.12
2023-05-11T04:30:06.592Z,26.11
2023-05-11T04:31:06.615Z,26.12
2023-05-11T04:32:06.573Z,26.13
2023-05-11T04:33:06.586Z,26.13
2023-05-11T04:34:06.584Z,26.13
2023-05-11T04:35:06.589Z,26.13
2023-05-11T04:36:06.550Z,26.14
2023-05-11T04:37:06.557Z,26.14
2023-05-11T04:38:06.550Z,26.14
2023-05-11T04:39:07.865Z,26.15
2023-05-11T04:40:06.507Z,26.15
2023-05-11T04:41:06.529Z,26.16
2023-05-11T04:42:06.513Z,26.17
2023-05-11T04:43:06.494Z,26.17
2023-05-11T04:44:06.512Z,26.17
2023-05-11T04:45:06.503Z,26.19
2023-05-11T04:46:06.489Z,26.19
2023-05-11T04:47:06.475Z,26.19
2023-05-11T04:48:06.606Z,26.19
2023-05-11T04:49:06.487Z,26.20
2023-05-11T04:50:06.445Z,26.20
2023-05-11T04:51:06.463Z,26.20
2023-05-11T04:52:06.430Z,26.21
2023-05-11T04:53:06.432Z,26.23
2023-05-11T04:54:06.408Z,26.23
2023-05-11T04:55:06.419Z,26.23
2023-05-11T04:56:06.415Z,26.24
2023-05-11T04:57:06.412Z,26.25
2023-05-11T04:58:06.400Z,26.25
2023-05-11T04:59:06.368Z,26.25
2023-05-11T05:00:06.460Z,26.26
2023-05-11T05:01:13.649Z,26.27
2023-05-11T05:02:06.364Z,26.27
2023-05-11T05:03:06.421Z,26.27
2023-05-11T05:04:06.406Z,26.27
2023-05-11T05:05:06.351Z,26.27
2023-05-11T05:06:06.347Z,26.28
2023-05-11T05:07:06.343Z,26.28
2023-05-11T05:08:06.320Z,26.29
2023-05-11T05:09:06.350Z,26.29
2023-05-11T05:10:06.330Z,26.30
2023-05-11T05:11:06.329Z,26.30
2023-05-11T05:12:06.313Z,26.32
2023-05-11T05:13:06.299Z,26.32
2023-05-11T05:14:06.290Z,26.32
2023-05-11T05:15:06.279Z,26.32
2023-05-11T05:16:06.309Z,26.32
2023-05-11T05:17:06.367Z,26.33
2023-05-11T05:18:06.313Z,26.34
2023-05-11T05:19:06.373Z,26.34
2023-05-11T05:20:06.272Z,26.34
2023-05-11T05:21:06.258Z,26.34
2023-05-11T05:22:06.214Z,26.34
2023-05-11T05:23:06.234Z,26.35
2023-05-11T05:24:06.244Z,26.35
2023-05-11T05:25:06.241Z,26.36
2023-05-11T05:26:06.222Z,26.36
2023-05-11T05:27:06.199Z,26.37
2023-05-11T05:28:06.204Z,26.38
2023-05-11T05:29:06.216Z,26.39
2023-05-11T05:30:06.184Z,26.39
2023-05-11T05:31:06.253Z,26.40
2023-05-11T05:32:06.187Z,26.38
2023-05-11T05:33:06.322Z,26.35
2023-05-11T05:34:06.177Z,26.15
2023-05-11T05:35:06.143Z,25.91
2023-05-11T05:36:06.147Z,25.68
2023-05-11T05:37:06.185Z,25.40
2023-05-11T05:38:06.157Z,25.21
2023-05-11T05:39:06.162Z,25.06
2023-05-11T05:40:06.222Z,24.86
2023-05-11T05:41:06.616Z,24.71
2023-05-11T05:42:06.295Z,24.56
2023-05-11T05:43:06.382Z,24.43
2023-05-11T05:44:06.388Z,24.35
2023-05-11T05:45:06.485Z,24.28
2023-05-11T05:46:13.678Z,24.13
2023-05-11T05:47:06.472Z,24.06
2023-05-11T05:48:06.495Z,24.00
2023-05-11T05:49:06.455Z,23.96
2023-05-11T05:50:06.481Z,23.94
2023-05-11T05:51:07.453Z,23.94
2023-05-11T05:52:06.648Z,23.93
2023-05-11T05:53:06.407Z,23.92
2023-05-11T05:54:06.424Z,23.90
2023-05-11T05:55:06.427Z,23.89
2023-05-11T05:56:06.406Z,23.81
2023-05-11T05:57:06.472Z,23.75
2023-05-11T05:58:06.380Z,23.71
2023-05-11T05:59:06.430Z,23.69
2023-05-11T06:00:06.371Z,23.65
2023-05-11T06:01:06.405Z,23.76
2023-05-11T06:02:06.401Z,23.90
2023-05-11T06:03:06.421Z,24.01
2023-05-11T06:04:06.627Z,24.12
2023-05-11T06:05:06.440Z,24.21
2023-05-11T06:06:06.337Z,24.29
2023-05-11T06:07:06.340Z,24.36
2023-05-11T06:08:11.090Z,24.42
2023-05-11T06:09:07.339Z,24.47
2023-05-11T06:10:06.349Z,24.52
2023-05-11T06:11:06.325Z,24.55
2023-05-11T06:12:06.309Z,24.56
2023-05-11T06:13:06.274Z,24.56
2023-05-11T06:14:06.296Z,24.57
2023-05-11T06:15:06.277Z,24.57
2023-05-11T06:16:06.325Z,24.55
2023-05-11T06:17:06.277Z,24.54
2023-05-11T06:18:06.326Z,24.52
2023-05-11T06:19:06.349Z,24.50
2023-05-11T06:20:06.225Z,24.49
2023-05-11T06:21:06.233Z,24.49
2023-05-11T06:22:06.989Z,24.50
2023-05-11T06:23:06.243Z,24.49
2023-05-11T06:24:06.208Z,24.50
2023-05-11T06:25:06.226Z,24.51
2023-05-11T06:26:06.190Z,24.52
2023-05-11T06:27:06.209Z,24.54
2023-05-11T06:28:06.214Z,24.51
2023-05-11T06:29:06.189Z,24.51
2023-05-11T06:30:06.192Z,24.52
2023-05-11T06:31:06.169Z,24.51
2023-05-11T06:32:06.202Z,24.49
2023-05-11T06:33:06.201Z,24.48
2023-05-11T06:34:06.166Z,24.49
2023-05-11T06:35:06.152Z,24.51
2023-05-11T06:36:06.208Z,24.52
2023-05-11T06:37:06.210Z,24.52
2023-05-11T06:38:06.345Z,24.51
2023-05-11T06:39:06.237Z,24.46
2023-05-11T06:40:06.245Z,24.40
2023-05-11T06:41:06.302Z,24.37
2023-05-11T06:42:06.932Z,24.35
2023-05-11T06:43:06.678Z,24.32
2023-05-11T06:44:06.347Z,24.33
2023-05-11T06:45:06.387Z,24.35
2023-05-11T06:46:06.411Z,24.37
2023-05-11T06:47:06.367Z,24.40
2023-05-11T06:48:06.524Z,24.41
2023-05-11T06:49:06.465Z,24.40
2023-05-11T06:50:06.433Z,24.39
2023-05-11T06:51:06.451Z,24.40
2023-05-11T06:52:06.515Z,24.41
2023-05-11T06:53:06.493Z,24.39
2023-05-11T06:54:06.528Z,24.35
2023-05-11T06:55:06.527Z,24.35
2023-05-11T06:56:06.565Z,24.34
2023-05-11T06:57:07.197Z,24.36
2023-05-11T06:58:06.666Z,24.35
2023-05-11T06:59:06.656Z,24.37
2023-05-11T07:00:06.673Z,24.39
2023-05-11T07:01:06.797Z,24.41
2023-05-11T07:02:06.717Z,24.42
2023-05-11T07:03:06.878Z,24.43
2023-05-11T07:04:06.827Z,24.42
2023-05-11T07:05:06.805Z,24.42
2023-05-11T07:06:06.805Z,24.40
2023-05-11T07:07:06.833Z,24.38
2023-05-11T07:08:06.850Z,24.38
2023-05-11T07:09:06.879Z,24.37
2023-05-11T07:10:06.874Z,24.36
2023-05-11T07:11:06.914Z,24.36
2023-05-11T07:12:06.978Z,24.38
2023-05-11T07:13:06.962Z,24.41
2023-05-11T07:14:06.967Z,24.43
2023-05-11T07:15:06.984Z,24.47
2023-05-11T07:16:07.051Z,24.49
2023-05-11T07:17:07.041Z,24.52
2023-05-11T07:18:07.035Z,24.53
2023-05-11T07:19:07.157Z,24.52
2023-05-11T07:20:07.153Z,24.50
2023-05-11T07:21:07.205Z,24.50
2023-05-11T07:22:07.251Z,24.49
2023-05-11T07:23:07.348Z,24.49
2023-05-11T07:24:07.429Z,24.50
2023-05-11T07:25:07.430Z,24.50
2023-05-11T07:26:07.499Z,24.51
2023-05-11T07:27:07.532Z,24.51
2023-05-11T07:28:07.645Z,24.51
2023-05-11T07:29:07.697Z,24.51
2023-05-11T07:30:07.758Z,24.52
2023-05-11T07:31:07.845Z,24.50
2023-05-11T07:32:07.859Z,24.51
2023-05-11T07:33:08.221Z,24.52
2023-05-11T07:34:07.991Z,24.54
2023-05-11T07:35:08.037Z,24.56
2023-05-11T07:36:08.111Z,24.56
2023-05-11T07:37:08.169Z,24.54
2023-05-11T07:38:08.684Z,24.54
2023-05-11T07:39:08.283Z,24.53
2023-05-11T07:40:08.336Z,24.55
2023-05-11T07:41:10.079Z,24.55
2023-05-11T07:42:08.399Z,24.54
2023-05-11T07:43:08.682Z,24.54
2023-05-11T07:44:08.376Z,24.55
2023-05-11T07:45:08.380Z,24.56
2023-05-11T07:46:08.387Z,24.58
2023-05-11T07:47:08.425Z,24.60
2023-05-11T07:48:08.363Z,24.64
2023-05-11T07:49:17.207Z,24.67
2023-05-11T07:50:09.369Z,24.71
2023-05-11T07:51:08.334Z,24.74
2023-05-11T07:52:08.320Z,24.77
2023-05-11T07:53:08.302Z,24.79
2023-05-11T07:54:08.303Z,24.81
2023-05-11T07:55:08.301Z,24.84
2023-05-11T07:56:08.289Z,24.85
2023-05-11T07:57:08.312Z,24.87
2023-05-11T07:58:08.307Z,24.88
2023-05-11T07:59:08.268Z,24.90
2023-05-11T08:00:08.376Z,24.89
2023-05-11T08:01:08.239Z,24.89
2023-05-11T08:02:09.027Z,24.91
2023-05-11T08:03:08.261Z,24.92
2023-05-11T08:04:08.253Z,24.93
2023-05-11T08:05:08.286Z,24.94
2023-05-11T08:06:08.260Z,24.97
2023-05-11T08:07:08.190Z,24.98
2023-05-11T08:08:08.203Z,24.97
2023-05-11T08:09:08.175Z,24.99
2023-05-11T08:10:08.193Z,25.02
2023-05-11T08:11:08.195Z,25.04
2023-05-11T08:12:08.153Z,25.05
2023-05-11T08:13:08.205Z,25.07
2023-05-11T08:14:08.221Z,25.10
2023-05-11T08:15:08.218Z,25.11
2023-05-11T08:16:08.324Z,25.16
2023-05-11T08:17:08.289Z,25.21
2023-05-11T08:18:08.417Z,25.24
2023-05-11T08:20:08.358Z,25.31
2023-05-11T08:21:08.369Z,25.35
2023-05-11T08:22:08.390Z,25.38
2023-05-11T08:23:08.375Z,25.42
2023-05-11T08:24:08.336Z,25.46
2023-05-11T08:25:08.368Z,25.48
2023-05-11T08:26:08.363Z,25.51
2023-05-11T08:27:08.387Z,25.55
2023-05-11T08:28:08.718Z,25.57
2023-05-11T08:29:08.443Z,25.61
2023-05-11T08:30:10.118Z,25.63
2023-05-11T08:31:08.466Z,25.65
2023-05-11T08:32:08.591Z,25.66
2023-05-11T08:33:29.141Z,25.65
2023-05-11T08:34:18.556Z,25.65
2023-05-11T08:35:09.551Z,25.65
2023-05-11T08:36:08.470Z,25.64
2023-05-11T08:37:08.444Z,25.61
2023-05-11T08:38:08.439Z,25.61
2023-05-11T08:39:08.751Z,25.60
2023-05-11T08:40:08.427Z,25.58
2023-05-11T08:41:08.398Z,25.56
2023-05-11T08:42:08.382Z,25.55
2023-05-11T08:43:08.393Z,25.53
2023-05-11T08:44:08.379Z,25.51
2023-05-11T08:45:08.373Z,25.51
2023-05-11T08:46:08.433Z,25.48
2023-05-11T08:47:21.892Z,25.48
2023-05-11T08:48:09.414Z,25.46
2023-05-11T08:49:08.366Z,25.45
2023-05-11T08:50:08.352Z,25.44
2023-05-11T08:51:08.349Z,25.43
2023-05-11T08:52:08.354Z,25.41
2023-05-11T08:53:08.339Z,25.41
2023-05-11T08:54:08.310Z,25.41
2023-05-11T08:55:08.323Z,25.40
2023-05-11T08:56:08.294Z,25.36
2023-05-11T08:57:08.287Z,25.32
2023-05-11T08:58:08.275Z,25.25
2023-05-11T08:59:08.276Z,25.17
2023-05-11T09:00:08.282Z,25.13
2023-05-11T09:01:08.275Z,25.07
2023-05-11T09:02:09.165Z,25.02
2023-05-11T09:03:08.311Z,24.99
2023-05-11T09:04:08.705Z,24.97
2023-05-11T09:05:08.329Z,24.90
2023-05-11T09:06:08.341Z,24.86
2023-05-11T09:07:08.370Z,24.83
2023-05-11T09:08:08.440Z,24.82
2023-05-11T09:09:08.457Z,24.80
2023-05-11T09:10:08.412Z,24.79
2023-05-11T09:11:08.460Z,24.77
2023-05-11T09:12:08.477Z,24.73
2023-05-11T09:13:08.476Z,24.72
2023-05-11T09:14:08.493Z,24.72
2023-05-11T09:15:08.544Z,24.74
2023-05-11T09:16:19.608Z,24.74
2023-05-11T09:17:09.709Z,24.76
2023-05-11T09:18:08.552Z,24.78
2023-05-11T09:19:08.507Z,24.80
2023-05-11T09:20:08.537Z,24.83
2023-05-11T09:21:08.490Z,24.84
2023-05-11T09:22:08.488Z,24.84
2023-05-11T09:23:08.487Z,24.82
2023-05-11T09:24:08.734Z,24.82
2023-05-11T09:25:08.527Z,24.81
2023-05-11T09:26:08.471Z,24.81
2023-05-11T09:27:08.433Z,24.79
2023-05-11T09:28:08.670Z,24.79
2023-05-11T09:29:08.455Z,24.79
2023-05-11T09:30:08.414Z,24.79
2023-05-11T09:31:08.526Z,24.79
2023-05-11T09:32:08.433Z,24.79
2023-05-11T09:33:08.479Z,24.79
2023-05-11T09:34:08.424Z,24.82
2023-05-11T09:35:08.433Z,24.81
2023-05-11T09:36:08.382Z,24.81
2023-05-11T09:37:08.389Z,24.82
2023-05-11T09:38:08.410Z,24.84
2023-05-11T09:39:15.533Z,24.85
2023-05-11T09:40:33.389Z,24.84
2023-05-11T09:41:09.392Z,24.85
2023-05-11T09:42:08.350Z,24.87
2023-05-11T09:43:08.336Z,24.88
2023-05-11T09:44:08.730Z,24.88
2023-05-11T09:45:08.349Z,24.87
2023-05-11T09:46:08.322Z,24.85
2023-05-11T09:47:08.332Z,24.85
2023-05-11T09:48:08.405Z,24.87
2023-05-11T09:49:08.306Z,24.88
2023-05-11T09:50:08.349Z,24.91
2023-05-11T09:51:08.390Z,24.94
2023-05-11T09:52:08.308Z,24.98
2023-05-11T09:53:08.315Z,25.03
2023-05-11T09:54:08.280Z,25.07
2023-05-11T09:55:08.250Z,25.12
2023-05-11T09:56:08.264Z,25.18
2023-05-11T09:57:08.273Z,25.20
2023-05-11T09:58:08.263Z,25.22
2023-05-11T09:59:08.265Z,25.24
2023-05-11T10:00:08.267Z,25.26
2023-05-11T10:01:08.278Z,25.27
2023-05-11T10:02:08.258Z,25.31
2023-05-11T10:03:08.464Z,25.33
2023-05-11T10:04:22.328Z,25.35
2023-05-11T10:05:09.259Z,25.37
2023-05-11T10:06:08.205Z,25.40
2023-05-11T10:07:08.204Z,25.41
2023-05-11T10:08:08.209Z,25.44
2023-05-11T10:09:08.256Z,25.47
2023-05-11T10:10:08.147Z,25.49
2023-05-11T10:11:08.179Z,25.52
2023-05-11T10:12:08.187Z,25.55
2023-05-11T10:13:08.171Z,25.57
2023-05-11T10:14:08.328Z,25.59
2023-05-11T10:15:08.141Z,25.60
2023-05-11T10:16:08.189Z,25.62
2023-05-11T10:17:08.116Z,25.64
2023-05-11T10:18:08.131Z,25.64
2023-05-11T10:19:08.306Z,25.65
2023-05-11T10:20:08.103Z,25.65
2023-05-11T10:21:08.089Z,25.66
2023-05-11T10:22:08.155Z,25.67
2023-05-11T10:23:08.098Z,25.68
2023-05-11T10:24:08.088Z,25.69
2023-05-11T10:25:08.097Z,25.71
2023-05-11T10:26:08.080Z,25.72
2023-05-11T10:27:08.035Z,25.72
2023-05-11T10:28:08.041Z,25.73
2023-05-11T10:29:08.031Z,25.73
2023-05-11T10:30:08.267Z,25.75
2023-05-11T10:31:08.013Z,25.75
2023-05-11T10:32:08.211Z,25.77
2023-05-11T10:33:08.066Z,25.79
2023-05-11T10:34:08.088Z,25.80
2023-05-11T10:35:08.259Z,25.82
2023-05-11T10:36:08.110Z,25.83
2023-05-11T10:37:08.134Z,25.84
2023-05-11T10:38:08.137Z,25.83
2023-05-11T10:39:08.143Z,25.83
2023-05-11T10:40:08.296Z,25.82
2023-05-11T10:41:08.219Z,25.83
2023-05-11T10:42:08.224Z,25.85
2023-05-11T10:43:08.243Z,25.89
2023-05-11T10:44:08.327Z,25.92
2023-05-11T10:45:08.783Z,25.93
2023-05-11T10:46:08.418Z,25.94
2023-05-11T10:47:08.291Z,25.96
2023-05-11T10:48:08.352Z,25.98
2023-05-11T10:49:08.352Z,25.98
2023-05-11T10:50:08.393Z,26.00
2023-05-11T10:51:08.390Z,26.01
2023-05-11T10:52:08.371Z,26.03
2023-05-11T10:53:08.348Z,26.03
2023-05-11T10:54:08.351Z,26.05
2023-05-11T10:55:08.799Z,26.07
2023-05-11T10:56:09.365Z,26.08
2023-05-11T10:57:08.330Z,26.10
2023-05-11T10:58:08.460Z,26.11
2023-05-11T10:59:08.497Z,26.12
2023-05-11T11:00:08.787Z,26.14
2023-05-11T11:01:08.577Z,26.14
2023-05-11T11:02:08.532Z,26.14
2023-05-11T11:03:08.676Z,26.15
2023-05-11T11:04:08.618Z,26.13
2023-05-11T11:05:08.801Z,26.14
2023-05-11T11:06:08.765Z,26.14
2023-05-11T11:07:08.770Z,26.13
2023-05-11T11:08:08.811Z,26.13
2023-05-11T11:09:08.840Z,26.14
2023-05-11T11:10:08.862Z,26.14
2023-05-11T11:11:08.921Z,26.13
2023-05-11T11:12:08.972Z,26.12
2023-05-11T11:13:09.002Z,26.12
2023-05-11T11:14:09.044Z,26.12
2023-05-11T11:15:09.113Z,26.12
2023-05-11T11:16:09.135Z,26.12
2023-05-11T11:17:09.171Z,26.12
2023-05-11T11:18:09.252Z,26.13
2023-05-11T11:19:09.313Z,26.13
2023-05-11T11:20:09.303Z,26.14
2023-05-11T11:21:09.272Z,26.15
2023-05-11T11:22:09.380Z,26.16
2023-05-11T11:23:09.335Z,26.16
2023-05-11T11:24:09.359Z,26.16
2023-05-11T11:25:09.893Z,26.15
2023-05-11T11:26:09.442Z,26.16
2023-05-11T11:27:09.481Z,26.15
2023-05-11T11:28:09.523Z,26.15
2023-05-11T11:29:09.580Z,26.13
2023-05-11T11:30:09.800Z,26.12
2023-05-11T11:31:09.708Z,26.09
2023-05-11T11:32:09.701Z,26.07
2023-05-11T11:33:09.798Z,26.05
2023-05-11T11:34:09.783Z,26.02
2023-05-11T11:35:10.300Z,26.00
2023-05-11T11:36:09.893Z,25.97
2023-05-11T11:37:10.065Z,25.94
2023-05-11T11:38:09.989Z,25.91
2023-05-11T11:39:10.061Z,25.90
2023-05-11T11:40:15.282Z,25.88
2023-05-11T11:41:11.096Z,25.86
2023-05-11T11:42:10.048Z,25.84
2023-05-11T11:43:10.023Z,25.83
2023-05-11T11:44:10.035Z,25.81
2023-05-11T11:45:10.048Z,25.81
2023-05-11T11:46:10.088Z,25.79
2023-05-11T11:47:10.004Z,25.79
2023-05-11T11:48:10.052Z,25.77
2023-05-11T11:49:09.977Z,25.75
2023-05-11T11:50:09.987Z,25.75
2023-05-11T11:51:10.032Z,25.74
2023-05-11T11:52:10.032Z,25.73
2023-05-11T11:53:10.106Z,25.72
2023-05-11T11:54:10.158Z,25.71
2023-05-11T11:55:10.141Z,25.70
2023-05-11T11:56:10.227Z,25.69
2023-05-11T11:57:10.221Z,25.68
2023-05-11T11:58:10.225Z,25.67
2023-05-11T11:59:10.291Z,25.67
2023-05-11T12:00:10.372Z,25.67
2023-05-11T12:01:10.352Z,25.66
2023-05-11T12:02:10.369Z,25.65
2023-05-11T12:03:10.429Z,25.65
2023-05-11T12:04:10.453Z,25.65
2023-05-11T12:05:10.538Z,25.64
2023-05-11T12:06:10.402Z,25.64
2023-05-11T12:07:10.382Z,25.64
2023-05-11T12:08:10.425Z,25.64
2023-05-11T12:09:10.485Z,25.65
2023-05-11T12:10:10.593Z,25.64
2023-05-11T12:11:10.556Z,25.63
2023-05-11T12:12:10.540Z,25.64
2023-05-11T12:13:10.566Z,25.64
2023-05-11T12:14:10.574Z,25.63
2023-05-11T12:15:10.599Z,25.62
2023-05-11T12:16:10.647Z,25.62
2023-05-11T12:17:10.596Z,25.61
2023-05-11T12:18:10.632Z,25.61
2023-05-11T12:19:10.691Z,25.60
2023-05-11T12:20:10.660Z,25.61
2023-05-11T12:21:10.682Z,25.60
2023-05-11T12:22:10.679Z,25.60
2023-05-11T12:23:10.723Z,25.59
2023-05-11T12:24:10.754Z,25.59
2023-05-11T12:25:10.742Z,25.59
2023-05-11T12:26:10.741Z,25.59
2023-05-11T12:27:10.771Z,25.59
2023-05-11T12:28:10.897Z,25.59
2023-05-11T12:29:10.836Z,25.59
2023-05-11T12:30:10.865Z,25.58
2023-05-11T12:31:10.895Z,25.59
2023-05-11T12:32:10.976Z,25.59
2023-05-11T12:33:11.048Z,25.58
2023-05-11T12:34:10.976Z,25.57
2023-05-11T12:35:11.039Z,25.57
2023-05-11T12:36:11.064Z,25.57
2023-05-11T12:37:11.115Z,25.57
2023-05-11T12:38:11.158Z,25.56
2023-05-11T12:39:11.151Z,25.56
2023-05-11T12:40:11.193Z,25.56
2023-05-11T12:41:11.230Z,25.56
2023-05-11T12:42:11.271Z,25.56
2023-05-11T12:43:11.302Z,25.56
2023-05-11T12:44:11.372Z,25.57
2023-05-11T12:45:11.400Z,25.56
2023-05-11T12:46:11.523Z,25.56
2023-05-11T12:47:11.489Z,25.56
2023-05-11T12:48:11.586Z,25.55
2023-05-11T12:49:11.583Z,25.55
2023-05-11T12:50:11.591Z,25.55
2023-05-11T12:51:11.627Z,25.54
2023-05-11T12:52:11.665Z,25.54
2023-05-11T12:53:11.690Z,25.54
2023-05-11T12:54:11.759Z,25.54